Thursday, January 29, 2015, 9:19 AM EST

KRDG, Reading Regional Airport

Location: Reading, PA, United States Lat: 40.367
Local Time: 9:19 AM EST (14:19 GMT) Lon: -75.967
Time Zone: US/Eastern Elev: 344 ft

Show me the last for .
Show Decoded

2015-01-29 08:54 METAR KRDG 291354Z 00000KT 10SM CLR M11/M14 A3029 RMK AO2 SLP268 T11061144 =
2015-01-29 07:54 METAR KRDG 291254Z 00000KT 10SM CLR M12/M15 A3030 =
2015-01-29 06:54 METAR KRDG 291154Z 31004KT 10SM CLR M13/M17 A3032 RMK AO2 SLP278 T11331167 11083
                 21139 53004 =
2015-01-29 05:54 METAR KRDG 291054Z 00000KT 10SM CLR M13/M17 A3032 RMK AO2 SLP277 T11331172 =
2015-01-29 04:54 METAR KRDG 290954Z 30003KT 10SM CLR M13/M17 A3030 =
2015-01-29 03:54 METAR KRDG 290854Z 00000KT 10SM CLR M12/M17 A3031 RMK AO2 SLP274 T11221167 53004
                 =
2015-01-29 02:54 METAR KRDG 290754Z 00000KT 10SM CLR M11/M17 A3030 RMK AO2 SLP271 T11061172 =
2015-01-29 01:54 METAR KRDG 290654Z 00000KT 10SM CLR M10/M17 A3030 RMK AO2 SLP269 T11001167 =
2015-01-29 00:54 METAR KRDG 290554Z 19005KT 10SM CLR M10/M17 A3030 RMK AO2 SLP269 T11001167 11017
                 21106 50006 =
2015-01-28 23:54 METAR KRDG 290454Z 00000KT 10SM CLR M07/M16 A3031 RMK AO2 SLP274 T10721161
                 410061100 =
2015-01-28 22:54 METAR KRDG 290354Z 33006KT 10SM CLR M05/M17 A3030 RMK AO2 SLP271 T10501167 =
2015-01-28 21:54 METAR KRDG 290254Z VRB03KT 10SM CLR M06/M16 A3028 RMK AO2 SLP263 T10611161 51010
                 =
2015-01-28 20:54 METAR KRDG 290154Z 34008KT 10SM CLR M06/M16 A3028 RMK AO2 SLP263 T10561161 =
2015-01-28 19:54 METAR KRDG 290054Z 29004KT 10SM CLR M02/M17 A3027 RMK AO2 SLP259 T10221172 =
2015-01-28 18:54 METAR KRDG 282354Z 28004KT 10SM CLR M02/M17 A3025 RMK AO2 SLP253 T10221167 11006
                 21044 53026 =
2015-01-28 17:54 METAR KRDG 282254Z 31008KT 10SM CLR M03/M16 A3022 RMK AO2 SLP244 T10281161 =
2015-01-28 16:54 METAR KRDG 282154Z 31009KT 10SM CLR M02/M14 A3019 RMK AO2 SLP233 T10171144 =
2015-01-28 15:54 METAR KRDG 282054Z 31014KT 10SM CLR M01/M15 A3017 RMK AO2 SLP226 T10061150 53006
                 =
2015-01-28 14:54 METAR KRDG 281954Z 32017G21KT 10SM CLR M01/M16 A3015 RMK AO2 SLP219 T10061156 =
2015-01-28 13:54 METAR KRDG 281854Z 32011KT 10SM CLR M01/M16 A3015 RMK AO2 SLP219 T10111156 =
2015-01-28 12:54 METAR KRDG 281754Z 32014KT 10SM CLR M02/M16 A3015 RMK AO2 SLP220 T10221156 11022
                 21089 58003 =
2015-01-28 11:54 METAR KRDG 281654Z 32011KT 10SM CLR M03/M16 A3016 RMK AO2 SLP224 T10331156 =
2015-01-28 10:54 METAR KRDG 281554Z 32010KT 10SM CLR M04/M16 A3017 RMK AO2 SLP226 T10441161 =
2015-01-28 09:54 METAR KRDG 281454Z 32017G21KT 10SM CLR M06/M17 A3016 RMK AO2 SLP223 T10611167
                 51025 =

Support USWX by starting your Amazon purchase here.